PWSweather.com
Personal Weather Stations
Station Observations
IKIEVKIE
KyivUA 01103

KyivUA 01103

Lat: 50.428, Lon: 30.553

Elevation: 502

Station Type: Davis Vantage Vue 6250

Latest ConditionsUpdated 5:45:29 PM GMT+02:02 Tuesday, Sep 25, 2018
Currently Today's Max Today's Min Today's Average
Temperature 47.5°F8.6°C 55.7°F13.2°C 47.5°F8.6°C 49.9°F9.9°C
Dew Point 40.4°F4.7°C 48.7°F9.3°C 40.4°F4.7°C 44.4°F6.9°C
Winds 1.8 mph S2.9 kmh S 3.6 mph -5.8 kmh - - 1.6 mph 2.6 kmh
Wind Gusts 5.0 mph8.0 kmh 14.0 mph22.5 kmh - -
Humidity 76% 93% 65% 82%
Pressure 30.16 in1021.3 mb 30.16 in1021.3 mb 29.83 in1010.2 mb -
Precipitation - 0.08 in2.0 mm - -
Hour Temp Dew Point Humidity Winds Wind Gusts Pressure Precip Precip Rate Daily Precip Total
05:45 PM 47.5°F8.6°C 40.4°F4.7°C 76% 1.8 mph S2.9 kmh S 5.0 mph8.0 kmh 30.16 in1021.3 mb 0.00 in0.0 mm 0.00 in0.0 mm 0.08 in2.0 mm
05:40 PM 47.5°F8.6°C 40.6°F4.8°C 77% 1.9 mph SW3.1 kmh SW 4.0 mph6.4 kmh 30.15 in1021.0 mb 0.00 in0.0 mm 0.00 in0.0 mm 0.08 in2.0 mm
05:35 PM 47.6°F8.7°C 41.1°F5.1°C 78% 1.0 mph NE1.6 kmh NE 5.0 mph8.0 kmh 30.15 in1021.0 mb 0.00 in0.0 mm 0.00 in0.0 mm 0.08 in2.0 mm
05:30 PM 47.6°F8.7°C 40.7°F4.8°C 77% 1.4 mph S2.3 kmh S 6.0 mph9.7 kmh 30.15 in1021.0 mb 0.00 in0.0 mm 0.00 in0.0 mm 0.08 in2.0 mm
05:25 PM 47.6°F8.7°C 40.8°F4.9°C 77% 1.6 mph S2.6 kmh S 6.0 mph9.7 kmh 30.15 in1021.0 mb 0.00 in0.0 mm 0.00 in0.0 mm 0.08 in2.0 mm
05:20 PM 47.7°F8.7°C 40.9°F4.9°C 77% 1.7 mph S2.7 kmh S 6.0 mph9.7 kmh 30.14 in1020.7 mb 0.00 in0.0 mm 0.00 in0.0 mm 0.08 in2.0 mm
05:15 PM 47.8°F8.8°C 40.7°F4.8°C 76% 2.5 mph SW4.0 kmh SW 6.0 mph9.7 kmh 30.14 in1020.7 mb 0.00 in0.0 mm 0.00 in0.0 mm 0.08 in2.0 mm
05:10 PM 47.9°F8.8°C 40.4°F4.7°C 75% 2.1 mph W3.4 kmh W 6.0 mph9.7 kmh 30.14 in1020.7 mb 0.00 in0.0 mm 0.00 in0.0 mm 0.08 in2.0 mm
05:04 PM 48.2°F9.0°C 40.7°F4.8°C 75% 1.6 mph WNW2.6 kmh WNW 6.0 mph9.7 kmh 30.14 in1020.7 mb 0.00 in0.0 mm 0.00 in0.0 mm 0.08 in2.0 mm
04:59 PM 48.4°F9.1°C 41.2°F5.1°C 76% 1.0 mph SW1.6 kmh SW 6.0 mph9.7 kmh 30.13 in1020.3 mb 0.00 in0.0 mm 0.00 in0.0 mm 0.08 in2.0 mm
04:54 PM 48.5°F9.2°C 41.3°F5.2°C 76% 1.5 mph WSW2.4 kmh WSW 6.0 mph9.7 kmh 30.13 in1020.3 mb 0.00 in0.0 mm 0.00 in0.0 mm 0.08 in2.0 mm
04:49 PM 48.4°F9.1°C 41.9°F5.5°C 78% 1.4 mph SSE2.3 kmh SSE 4.0 mph6.4 kmh 30.13 in1020.3 mb 0.00 in0.0 mm 0.00 in0.0 mm 0.08 in2.0 mm
04:44 PM 48.0°F8.9°C 41.8°F5.4°C 79% 1.1 mph S1.8 kmh S 7.0 mph11.3 kmh 30.13 in1020.3 mb 0.00 in0.0 mm 0.00 in0.0 mm 0.08 in2.0 mm
04:39 PM 48.1°F8.9°C 41.6°F5.3°C 78% 2.0 mph S3.2 kmh S 7.0 mph11.3 kmh 30.13 in1020.3 mb 0.00 in0.0 mm 0.00 in0.0 mm 0.08 in2.0 mm
04:34 PM 48.4°F9.1°C 41.9°F5.5°C 78% 1.2 mph S1.9 kmh S 7.0 mph11.3 kmh 30.13 in1020.3 mb 0.00 in0.0 mm 0.00 in0.0 mm 0.08 in2.0 mm
04:29 PM 49.1°F9.5°C 42.6°F5.9°C 78% 3.2 mph WSW5.1 kmh WSW 7.0 mph11.3 kmh 30.13 in1020.3 mb 0.00 in0.0 mm 0.00 in0.0 mm 0.08 in2.0 mm
04:24 PM 49.6°F9.8°C 42.4°F5.8°C 76% 1.0 mph ESE1.6 kmh ESE 6.0 mph9.7 kmh 30.13 in1020.3 mb 0.00 in0.0 mm 0.00 in0.0 mm 0.08 in2.0 mm
04:19 PM 49.9°F9.9°C 41.7°F5.4°C 73% 1.3 mph SSE2.1 kmh SSE 6.0 mph9.7 kmh 30.13 in1020.3 mb 0.00 in0.0 mm 0.00 in0.0 mm 0.08 in2.0 mm
04:14 PM 50.2°F10.1°C 40.9°F4.9°C 70% 1.7 mph ESE2.7 kmh ESE 6.0 mph9.7 kmh 30.13 in1020.3 mb 0.00 in0.0 mm 0.00 in0.0 mm 0.08 in2.0 mm
04:09 PM 50.4°F10.2°C 41.0°F5.0°C 70% 1.7 mph E2.7 kmh E 3.0 mph4.8 kmh 30.12 in1020.0 mb 0.00 in0.0 mm 0.00 in0.0 mm 0.08 in2.0 mm
04:03 PM 50.6°F10.3°C 40.8°F4.9°C 69% 1.0 mph SE1.6 kmh SE 5.0 mph8.0 kmh 30.12 in1020.0 mb 0.00 in0.0 mm 0.00 in0.0 mm 0.08 in2.0 mm
03:58 PM 50.9°F10.5°C 41.1°F5.1°C 69% 1.4 mph SW2.3 kmh SW 6.0 mph9.7 kmh 30.12 in1020.0 mb 0.00 in0.0 mm 0.00 in0.0 mm 0.08 in2.0 mm
03:53 PM 51.1°F10.6°C 41.7°F5.4°C 70% 1.0 mph NE1.6 kmh NE 6.0 mph9.7 kmh 30.12 in1020.0 mb 0.00 in0.0 mm 0.00 in0.0 mm 0.08 in2.0 mm
03:48 PM 51.3°F10.7°C 41.2°F5.1°C 68% 1.2 mph SSW1.9 kmh SSW 6.0 mph9.7 kmh 30.12 in1020.0 mb 0.00 in0.0 mm 0.00 in0.0 mm 0.08 in2.0 mm
03:43 PM 51.5°F10.8°C 41.8°F5.4°C 69% 1.4 mph SE2.3 kmh SE 6.0 mph9.7 kmh 30.12 in1020.0 mb 0.00 in0.0 mm 0.00 in0.0 mm 0.08 in2.0 mm
03:38 PM 51.8°F11.0°C 41.7°F5.4°C 68% 2.0 mph E3.2 kmh E 5.0 mph8.0 kmh 30.11 in1019.6 mb 0.00 in0.0 mm 0.00 in0.0 mm 0.08 in2.0 mm
03:33 PM 52.3°F11.3°C 42.2°F5.7°C 68% 2.2 mph WSW3.5 kmh WSW 5.0 mph8.0 kmh 30.11 in1019.6 mb 0.00 in0.0 mm 0.00 in0.0 mm 0.08 in2.0 mm
03:28 PM 52.4°F11.3°C 42.6°F5.9°C 69% 1.3 mph SE2.1 kmh SE 4.0 mph6.4 kmh 30.11 in1019.6 mb 0.00 in0.0 mm 0.00 in0.0 mm 0.08 in2.0 mm
03:23 PM 51.9°F11.1°C 42.9°F6.1°C 71% 1.1 mph SE1.8 kmh SE 5.0 mph8.0 kmh 30.11 in1019.6 mb 0.00 in0.0 mm 0.00 in0.0 mm 0.08 in2.0 mm
03:18 PM 51.1°F10.6°C 42.1°F5.6°C 71% 1.4 mph E2.3 kmh E 5.0 mph8.0 kmh 30.11 in1019.6 mb 0.00 in0.0 mm 0.00 in0.0 mm 0.08 in2.0 mm
03:13 PM 51.0°F10.6°C 42.0°F5.6°C 71% 1.4 mph SE2.3 kmh SE 6.0 mph9.7 kmh 30.11 in1019.6 mb 0.00 in0.0 mm 0.00 in0.0 mm 0.08 in2.0 mm
03:08 PM 51.1°F10.6°C 41.8°F5.4°C 70% 1.6 mph SE2.6 kmh SE 7.0 mph11.3 kmh 30.11 in1019.6 mb 0.00 in0.0 mm 0.00 in0.0 mm 0.08 in2.0 mm
03:03 PM 51.3°F10.7°C 41.6°F5.3°C 69% 1.4 mph E2.3 kmh E 8.0 mph12.9 kmh 30.10 in1019.3 mb 0.00 in0.0 mm 0.00 in0.0 mm 0.08 in2.0 mm
02:58 PM 51.6°F10.9°C 41.5°F5.3°C 68% 1.5 mph SSW2.4 kmh SSW 9.0 mph14.5 kmh 30.10 in1019.3 mb 0.00 in0.0 mm 0.00 in0.0 mm 0.08 in2.0 mm
02:52 PM 51.9°F11.1°C 41.8°F5.4°C 68% 1.5 mph SE2.4 kmh SE 9.0 mph14.5 kmh 30.10 in1019.3 mb 0.00 in0.0 mm 0.00 in0.0 mm 0.08 in2.0 mm
02:47 PM 52.0°F11.1°C 41.9°F5.5°C 68% 2.2 mph SSW3.5 kmh SSW 9.0 mph14.5 kmh 30.10 in1019.3 mb 0.00 in0.0 mm 0.00 in0.0 mm 0.08 in2.0 mm
02:42 PM 52.1°F11.2°C 42.0°F5.6°C 68% 1.6 mph ESE2.6 kmh ESE 13.0 mph20.9 kmh 30.10 in1019.3 mb 0.00 in0.0 mm 0.00 in0.0 mm 0.08 in2.0 mm
02:37 PM 52.1°F11.2°C 42.0°F5.6°C 68% 2.6 mph ESE4.2 kmh ESE 14.0 mph22.5 kmh 30.10 in1019.3 mb 0.00 in0.0 mm 0.00 in0.0 mm 0.08 in2.0 mm
02:32 PM 51.8°F11.0°C 42.1°F5.6°C 69% 2.5 mph S4.0 kmh S 14.0 mph22.5 kmh 30.09 in1019.0 mb 0.00 in0.0 mm 0.00 in0.0 mm 0.08 in2.0 mm
02:27 PM 51.8°F11.0°C 41.7°F5.4°C 68% 2.3 mph SSW3.7 kmh SSW 14.0 mph22.5 kmh 30.09 in1019.0 mb 0.00 in0.0 mm 0.00 in0.0 mm 0.08 in2.0 mm
02:22 PM 51.9°F11.1°C 42.5°F5.8°C 70% 2.4 mph SE3.9 kmh SE 8.0 mph12.9 kmh 30.09 in1019.0 mb 0.00 in0.0 mm 0.00 in0.0 mm 0.08 in2.0 mm
02:17 PM 51.9°F11.1°C 42.2°F5.7°C 69% 2.7 mph SW4.3 kmh SW 8.0 mph12.9 kmh 30.09 in1019.0 mb 0.00 in0.0 mm 0.00 in0.0 mm 0.08 in2.0 mm
02:12 PM 52.0°F11.1°C 43.4°F6.3°C 72% 1.7 mph E2.7 kmh E 6.0 mph9.7 kmh 30.09 in1019.0 mb 0.00 in0.0 mm 0.00 in0.0 mm 0.08 in2.0 mm
02:07 PM 51.9°F11.1°C 43.6°F6.4°C 73% 1.0 mph SE1.6 kmh SE 6.0 mph9.7 kmh 30.09 in1019.0 mb 0.00 in0.0 mm 0.00 in0.0 mm 0.08 in2.0 mm
02:01 PM 52.0°F11.1°C 43.7°F6.5°C 73% 2.2 mph SE3.5 kmh SE 6.0 mph9.7 kmh 30.09 in1019.0 mb 0.00 in0.0 mm 0.00 in0.0 mm 0.08 in2.0 mm
01:56 PM 52.0°F11.1°C 44.0°F6.7°C 74% 1.6 mph S2.6 kmh S 5.0 mph8.0 kmh 30.08 in1018.6 mb 0.00 in0.0 mm 0.00 in0.0 mm 0.08 in2.0 mm
01:51 PM 51.6°F10.9°C 43.7°F6.5°C 74% 1.9 mph S3.1 kmh S 13.0 mph20.9 kmh 30.08 in1018.6 mb 0.00 in0.0 mm 0.00 in0.0 mm 0.08 in2.0 mm
01:46 PM 51.4°F10.8°C 43.4°F6.3°C 74% 1.5 mph SSW2.4 kmh SSW 13.0 mph20.9 kmh 30.08 in1018.6 mb 0.00 in0.0 mm 0.00 in0.0 mm 0.08 in2.0 mm
01:41 PM 51.5°F10.8°C 43.2°F6.2°C 73% 1.5 mph ENE2.4 kmh ENE 13.0 mph20.9 kmh 30.08 in1018.6 mb 0.00 in0.0 mm 0.00 in0.0 mm 0.08 in2.0 mm
01:36 PM 51.6°F10.9°C 42.6°F5.9°C 71% 3.6 mph WSW5.8 kmh WSW 13.0 mph20.9 kmh 30.08 in1018.6 mb 0.00 in0.0 mm 0.00 in0.0 mm 0.08 in2.0 mm
01:31 PM 51.5°F10.8°C 42.5°F5.8°C 71% 2.9 mph S4.7 kmh S 9.0 mph14.5 kmh 30.08 in1018.6 mb 0.00 in0.0 mm 0.00 in0.0 mm 0.08 in2.0 mm
01:26 PM 51.5°F10.8°C 42.5°F5.8°C 71% 2.2 mph SE3.5 kmh SE 8.0 mph12.9 kmh 30.07 in1018.3 mb 0.00 in0.0 mm 0.00 in0.0 mm 0.08 in2.0 mm
01:21 PM 52.3°F11.3°C 42.5°F5.8°C 69% 2.6 mph S4.2 kmh S 9.0 mph14.5 kmh 30.07 in1018.3 mb 0.00 in0.0 mm 0.00 in0.0 mm 0.08 in2.0 mm
01:16 PM 53.2°F11.8°C 43.0°F6.1°C 68% 2.6 mph SSW4.2 kmh SSW 9.0 mph14.5 kmh 30.07 in1018.3 mb 0.00 in0.0 mm 0.00 in0.0 mm 0.08 in2.0 mm
01:11 PM 54.3°F12.4°C 43.7°F6.5°C 67% 2.6 mph SE4.2 kmh SE 9.0 mph14.5 kmh 30.07 in1018.3 mb 0.00 in0.0 mm 0.00 in0.0 mm 0.08 in2.0 mm
01:06 PM 55.1°F12.8°C 43.5°F6.4°C 65% 2.6 mph WSW4.2 kmh WSW 10.0 mph16.1 kmh 30.06 in1017.9 mb 0.00 in0.0 mm 0.00 in0.0 mm 0.08 in2.0 mm
01:01 PM 55.7°F13.2°C 44.5°F6.9°C 66% 2.9 mph S4.7 kmh S 10.0 mph16.1 kmh 30.06 in1017.9 mb 0.00 in0.0 mm 0.00 in0.0 mm 0.08 in2.0 mm
12:56 PM 55.4°F13.0°C 45.1°F7.3°C 68% 2.2 mph SW3.5 kmh SW 7.0 mph11.3 kmh 30.06 in1017.9 mb 0.00 in0.0 mm 0.00 in0.0 mm 0.08 in2.0 mm
12:51 PM 55.1°F12.8°C 44.5°F6.9°C 67% 1.6 mph SW2.6 kmh SW 7.0 mph11.3 kmh 30.06 in1017.9 mb 0.00 in0.0 mm 0.00 in0.0 mm 0.08 in2.0 mm
12:46 PM 54.9°F12.7°C 45.0°F7.2°C 69% 1.8 mph SE2.9 kmh SE 7.0 mph11.3 kmh 30.06 in1017.9 mb 0.00 in0.0 mm 0.00 in0.0 mm 0.08 in2.0 mm
12:41 PM 55.0°F12.8°C 44.8°F7.1°C 68% 2.0 mph NW3.2 kmh NW 7.0 mph11.3 kmh 30.06 in1017.9 mb 0.00 in0.0 mm 0.00 in0.0 mm 0.08 in2.0 mm
12:35 PM 55.2°F12.9°C 44.2°F6.8°C 66% 1.8 mph SSW2.9 kmh SSW 8.0 mph12.9 kmh 30.06 in1017.9 mb 0.00 in0.0 mm 0.00 in0.0 mm 0.08 in2.0 mm
12:29 PM 55.6°F13.1°C 44.1°F6.7°C 65% 2.4 mph SSE3.9 kmh SSE 14.0 mph22.5 kmh 30.06 in1017.9 mb 0.00 in0.0 mm 0.00 in0.0 mm 0.08 in2.0 mm
12:24 PM 55.5°F13.1°C 44.5°F6.9°C 66% 1.4 mph SSW2.3 kmh SSW 14.0 mph22.5 kmh 30.05 in1017.6 mb 0.00 in0.0 mm 0.00 in0.0 mm 0.08 in2.0 mm
12:19 PM 55.4°F13.0°C 44.0°F6.7°C 65% 3.4 mph WSW5.5 kmh WSW 14.0 mph22.5 kmh 30.05 in1017.6 mb 0.00 in0.0 mm 0.00 in0.0 mm 0.08 in2.0 mm
12:14 PM 55.2°F12.9°C 44.0°F6.7°C 66% 2.7 mph SE4.3 kmh SE 14.0 mph22.5 kmh 30.05 in1017.6 mb 0.00 in0.0 mm 0.00 in0.0 mm 0.08 in2.0 mm
12:09 PM 54.8°F12.7°C 45.7°F7.6°C 71% 1.2 mph NNE1.9 kmh NNE 9.0 mph14.5 kmh 30.05 in1017.6 mb 0.00 in0.0 mm 0.00 in0.0 mm 0.08 in2.0 mm
12:04 PM 54.2°F12.3°C 45.1°F7.3°C 71% 1.8 mph SW2.9 kmh SW 9.0 mph14.5 kmh 30.05 in1017.6 mb 0.00 in0.0 mm 0.00 in0.0 mm 0.08 in2.0 mm
11:59 AM 54.0°F12.2°C 45.6°F7.6°C 73% 2.1 mph SSE3.4 kmh SSE 7.0 mph11.3 kmh 30.04 in1017.3 mb 0.00 in0.0 mm 0.00 in0.0 mm 0.08 in2.0 mm
11:54 AM 53.5°F11.9°C 47.5°F8.6°C 80% 1.9 mph SSW3.1 kmh SSW 8.0 mph12.9 kmh 30.04 in1017.3 mb 0.00 in0.0 mm 0.00 in0.0 mm 0.08 in2.0 mm
11:49 AM 52.4°F11.3°C 47.1°F8.4°C 82% 2.0 mph SW3.2 kmh SW 8.0 mph12.9 kmh 30.04 in1017.3 mb 0.00 in0.0 mm 0.00 in0.0 mm 0.08 in2.0 mm
11:44 AM 51.4°F10.8°C 46.4°F8.0°C 83% 1.2 mph S1.9 kmh S 6.0 mph9.7 kmh 30.04 in1017.3 mb 0.00 in0.0 mm 0.00 in0.0 mm 0.08 in2.0 mm
11:39 AM 50.9°F10.5°C 45.3°F7.4°C 81% 2.4 mph S3.9 kmh S 7.0 mph11.3 kmh 30.04 in1017.3 mb 0.00 in0.0 mm 0.00 in0.0 mm 0.08 in2.0 mm
11:34 AM 51.3°F10.7°C 45.7°F7.6°C 81% 2.7 mph N4.3 kmh N 9.0 mph14.5 kmh 30.03 in1016.9 mb 0.00 in0.0 mm 0.00 in0.0 mm 0.08 in2.0 mm
11:28 AM 52.1°F11.2°C 46.2°F7.9°C 80% 1.7 mph SSW2.7 kmh SSW 9.0 mph14.5 kmh 30.03 in1016.9 mb 0.00 in0.0 mm 0.00 in0.0 mm 0.08 in2.0 mm
11:24 AM 52.7°F11.5°C 47.1°F8.4°C 81% 1.8 mph WSW2.9 kmh WSW 9.0 mph14.5 kmh 30.03 in1016.9 mb 0.00 in0.0 mm 0.00 in0.0 mm 0.08 in2.0 mm
11:18 AM 52.8°F11.6°C 47.5°F8.6°C 82% 3.3 mph SSW5.3 kmh SSW 9.0 mph14.5 kmh 30.03 in1016.9 mb 0.00 in0.0 mm 0.00 in0.0 mm 0.08 in2.0 mm
11:13 AM 52.6°F11.4°C 47.9°F8.8°C 84% 2.0 mph ESE3.2 kmh ESE 7.0 mph11.3 kmh 30.03 in1016.9 mb 0.01 in0.3 mm 0.00 in0.0 mm 0.08 in2.0 mm
11:08 AM 52.0°F11.1°C 47.9°F8.8°C 86% 1.9 mph SW3.1 kmh SW 7.0 mph11.3 kmh 30.03 in1016.9 mb 0.01 in0.3 mm 0.00 in0.0 mm 0.08 in2.0 mm
11:03 AM 51.3°F10.7°C 47.8°F8.8°C 88% 1.8 mph E2.9 kmh E 8.0 mph12.9 kmh 30.03 in1016.9 mb 0.01 in0.3 mm 0.00 in0.0 mm 0.08 in2.0 mm
10:58 AM 50.4°F10.2°C 47.0°F8.3°C 88% 1.5 mph SW2.4 kmh SW 8.0 mph12.9 kmh 30.03 in1016.9 mb 0.02 in0.5 mm 0.00 in0.0 mm 0.08 in2.0 mm
10:53 AM 50.0°F10.0°C 46.9°F8.3°C 89% 1.9 mph W3.1 kmh W 6.0 mph9.7 kmh 30.03 in1016.9 mb 0.03 in0.8 mm 0.00 in0.0 mm 0.08 in2.0 mm
10:48 AM 49.8°F9.9°C 47.0°F8.3°C 90% 1.6 mph E2.6 kmh E 6.0 mph9.7 kmh 30.02 in1016.6 mb 0.03 in0.8 mm 0.00 in0.0 mm 0.08 in2.0 mm
10:43 AM 49.5°F9.7°C 47.0°F8.3°C 91% 1.0 mph SW1.6 kmh SW 6.0 mph9.7 kmh 30.02 in1016.6 mb 0.04 in1.0 mm 0.00 in0.0 mm 0.08 in2.0 mm
10:38 AM 49.1°F9.5°C 46.8°F8.2°C 92% 1.2 mph E1.9 kmh E 6.0 mph9.7 kmh 30.02 in1016.6 mb 0.04 in1.0 mm 0.00 in0.0 mm 0.08 in2.0 mm
10:33 AM 48.5°F9.2°C 46.2°F7.9°C 92% 1.3 mph ESE2.1 kmh ESE 6.0 mph9.7 kmh 30.02 in1016.6 mb 0.04 in1.0 mm 0.00 in0.0 mm 0.08 in2.0 mm
10:27 AM 48.2°F9.0°C 46.2°F7.9°C 93% 1.6 mph E2.6 kmh E 5.0 mph8.0 kmh 30.01 in1016.3 mb 0.04 in1.0 mm 0.00 in0.0 mm 0.08 in2.0 mm
10:22 AM 47.9°F8.8°C 45.9°F7.7°C 93% 1.7 mph S2.7 kmh S 5.0 mph8.0 kmh 30.01 in1016.3 mb 0.04 in1.0 mm 0.00 in0.0 mm 0.08 in2.0 mm
10:17 AM 47.6°F8.7°C 45.3°F7.4°C 92% 1.0 mph E1.6 kmh E 6.0 mph9.7 kmh 30.01 in1016.3 mb 0.04 in1.0 mm 0.12 in3.0 mm 0.08 in2.0 mm
10:12 AM 47.6°F8.7°C 45.1°F7.3°C 91% 2.0 mph ENE3.2 kmh ENE 6.0 mph9.7 kmh 30.01 in1016.3 mb 0.03 in0.8 mm 0.00 in0.0 mm 0.07 in1.8 mm
10:07 AM 47.6°F8.7°C 45.1°F7.3°C 91% 1.9 mph WSW3.1 kmh WSW 7.0 mph11.3 kmh 30.01 in1016.3 mb 0.03 in0.8 mm 0.12 in3.0 mm 0.07 in1.8 mm
10:02 AM 47.8°F8.8°C 45.0°F7.2°C 90% 2.3 mph S3.7 kmh S 10.0 mph16.1 kmh 30.00 in1015.9 mb 0.02 in0.5 mm 0.00 in0.0 mm 0.06 in1.5 mm
09:57 AM 48.2°F9.0°C 45.1°F7.3°C 89% 1.5 mph SE2.4 kmh SE 10.0 mph16.1 kmh 30.00 in1015.9 mb 0.02 in0.5 mm 0.12 in3.0 mm 0.06 in1.5 mm
09:52 AM 48.7°F9.3°C 45.3°F7.4°C 88% 1.5 mph E2.4 kmh E 11.0 mph17.7 kmh 30.00 in1015.9 mb 0.01 in0.3 mm 0.00 in0.0 mm 0.05 in1.3 mm
09:47 AM 49.5°F9.7°C 45.5°F7.5°C 86% 3.5 mph SW5.6 kmh SW 11.0 mph17.7 kmh 30.00 in1015.9 mb 0.01 in0.3 mm 0.12 in3.0 mm 0.05 in1.3 mm
09:42 AM 50.1°F10.1°C 46.1°F7.8°C 86% 1.3 mph WSW2.1 kmh WSW 4.0 mph6.4 kmh 30.00 in1015.9 mb 0.00 in0.0 mm 0.00 in0.0 mm 0.04 in1.0 mm
09:37 AM 50.6°F10.3°C 46.6°F8.1°C 86% 1.5 mph S2.4 kmh S 5.0 mph8.0 kmh 29.99 in1015.6 mb 0.00 in0.0 mm 0.00 in0.0 mm 0.04 in1.0 mm
09:32 AM 51.1°F10.6°C 46.7°F8.2°C 85% 1.9 mph SE3.1 kmh SE 5.0 mph8.0 kmh 29.99 in1015.6 mb 0.00 in0.0 mm 0.00 in0.0 mm 0.04 in1.0 mm
09:26 AM 51.5°F10.8°C 48.0°F8.9°C 88% 1.4 mph SE2.3 kmh SE 5.0 mph8.0 kmh 29.99 in1015.6 mb 0.00 in0.0 mm 0.00 in0.0 mm 0.04 in1.0 mm
09:21 AM 51.4°F10.8°C 48.2°F9.0°C 89% 1.3 mph SE2.1 kmh SE 5.0 mph8.0 kmh 29.99 in1015.6 mb 0.00 in0.0 mm 0.00 in0.0 mm 0.04 in1.0 mm
09:16 AM 51.3°F10.7°C 48.7°F9.3°C 91% 1.3 mph SE2.1 kmh SE 4.0 mph6.4 kmh 29.98 in1015.2 mb 0.01 in0.3 mm 0.00 in0.0 mm 0.04 in1.0 mm
09:11 AM 50.6°F10.3°C 48.6°F9.2°C 93% 1.4 mph N2.3 kmh N 4.0 mph6.4 kmh 29.98 in1015.2 mb 0.01 in0.3 mm 0.00 in0.0 mm 0.04 in1.0 mm
09:06 AM 49.8°F9.9°C 47.5°F8.6°C 92% 1.3 mph W2.1 kmh W 5.0 mph8.0 kmh 29.98 in1015.2 mb 0.01 in0.3 mm 0.00 in0.0 mm 0.04 in1.0 mm
09:01 AM 49.3°F9.6°C 47.0°F8.3°C 92% 1.7 mph SE2.7 kmh SE 5.0 mph8.0 kmh 29.97 in1014.9 mb 0.01 in0.3 mm 0.00 in0.0 mm 0.04 in1.0 mm
08:56 AM 49.0°F9.4°C 46.7°F8.2°C 92% 1.0 mph N1.6 kmh N 4.0 mph6.4 kmh 29.97 in1014.9 mb 0.01 in0.3 mm 0.00 in0.0 mm 0.04 in1.0 mm
08:51 AM 48.8°F9.3°C 46.5°F8.1°C 92% 1.4 mph ESE2.3 kmh ESE 4.0 mph6.4 kmh 29.97 in1014.9 mb 0.01 in0.3 mm 0.00 in0.0 mm 0.04 in1.0 mm
08:46 AM 48.5°F9.2°C 46.2°F7.9°C 92% 1.7 mph SW2.7 kmh SW 6.0 mph9.7 kmh 29.97 in1014.9 mb 0.01 in0.3 mm 0.00 in0.0 mm 0.04 in1.0 mm
08:41 AM 48.5°F9.2°C 46.2°F7.9°C 92% 2.3 mph SW3.7 kmh SW 6.0 mph9.7 kmh 29.97 in1014.9 mb 0.03 in0.8 mm 0.00 in0.0 mm 0.04 in1.0 mm
08:36 AM 48.5°F9.2°C 46.2°F7.9°C 92% 1.3 mph NNE2.1 kmh NNE 6.0 mph9.7 kmh 29.97 in1014.9 mb 0.03 in0.8 mm 0.00 in0.0 mm 0.04 in1.0 mm
08:31 AM 48.4°F9.1°C 46.2°F7.9°C 92% 1.7 mph NW2.7 kmh NW 6.0 mph9.7 kmh 29.96 in1014.6 mb 0.03 in0.8 mm 0.00 in0.0 mm 0.04 in1.0 mm
08:25 AM 48.4°F9.1°C 46.4°F8.0°C 93% 1.6 mph SE2.6 kmh SE 6.0 mph9.7 kmh 29.96 in1014.6 mb 0.04 in1.0 mm 0.00 in0.0 mm 0.04 in1.0 mm
08:20 AM 48.2°F9.0°C 46.3°F7.9°C 93% 1.4 mph NW2.3 kmh NW 6.0 mph9.7 kmh 29.96 in1014.6 mb 0.04 in1.0 mm 0.12 in3.0 mm 0.04 in1.0 mm
08:15 AM 48.0°F8.9°C 46.0°F7.8°C 93% 1.8 mph W2.9 kmh W 6.0 mph9.7 kmh 29.96 in1014.6 mb 0.03 in0.8 mm 0.00 in0.0 mm 0.03 in0.8 mm
08:10 AM 47.9°F8.8°C 45.9°F7.7°C 93% 2.0 mph SSW3.2 kmh SSW 5.0 mph8.0 kmh 29.95 in1014.2 mb 0.03 in0.8 mm 0.00 in0.0 mm 0.03 in0.8 mm
08:05 AM 47.7°F8.7°C 45.4°F7.4°C 92% 1.0 mph SE1.6 kmh SE 4.0 mph6.4 kmh 29.95 in1014.2 mb 0.03 in0.8 mm 0.00 in0.0 mm 0.03 in0.8 mm
08:00 AM 47.7°F8.7°C 45.4°F7.4°C 92% 1.4 mph S2.3 kmh S 5.0 mph8.0 kmh 29.95 in1014.2 mb 0.03 in0.8 mm 0.00 in0.0 mm 0.03 in0.8 mm
07:55 AM 47.7°F8.7°C 45.4°F7.4°C 92% 1.1 mph E1.8 kmh E 5.0 mph8.0 kmh 29.95 in1014.2 mb 0.03 in0.8 mm 0.00 in0.0 mm 0.03 in0.8 mm
07:50 AM 47.8°F8.8°C 45.3°F7.4°C 91% 1.0 mph WSW1.6 kmh WSW 5.0 mph8.0 kmh 29.95 in1014.2 mb 0.03 in0.8 mm 0.00 in0.0 mm 0.03 in0.8 mm
07:45 AM 47.9°F8.8°C 45.4°F7.4°C 91% 1.3 mph S2.1 kmh S 5.0 mph8.0 kmh 29.94 in1013.9 mb 0.03 in0.8 mm 0.24 in6.1 mm 0.02 in0.5 mm
07:40 AM 47.9°F8.8°C 45.4°F7.4°C 91% 1.9 mph WSW3.1 kmh WSW 5.0 mph8.0 kmh 29.94 in1013.9 mb 0.01 in0.3 mm 0.00 in0.0 mm 0.01 in0.3 mm
07:35 AM 48.0°F8.9°C 45.5°F7.5°C 91% 1.9 mph SW3.1 kmh SW 5.0 mph8.0 kmh 29.94 in1013.9 mb 0.01 in0.3 mm 0.00 in0.0 mm 0.01 in0.3 mm
07:30 AM 48.1°F8.9°C 45.6°F7.6°C 91% 1.1 mph SW1.8 kmh SW 4.0 mph6.4 kmh 29.94 in1013.9 mb 0.01 in0.3 mm 0.10 in2.5 mm 0.01 in0.3 mm
07:24 AM 48.1°F8.9°C 45.6°F7.6°C 91% 1.0 mph WSW1.6 kmh WSW 5.0 mph8.0 kmh 29.93 in1013.5 mb 0.00 in0.0 mm 0.00 in0.0 mm 0.00 in0.0 mm
07:19 AM 48.1°F8.9°C 45.3°F7.4°C 90% 1.6 mph S2.6 kmh S 5.0 mph8.0 kmh 29.93 in1013.5 mb 0.00 in0.0 mm 0.00 in0.0 mm 0.00 in0.0 mm
07:14 AM 48.2°F9.0°C 45.4°F7.4°C 90% 2.5 mph S4.0 kmh S 5.0 mph8.0 kmh 29.93 in1013.5 mb 0.00 in0.0 mm 0.00 in0.0 mm 0.00 in0.0 mm
07:09 AM 48.3°F9.1°C 45.2°F7.3°C 89% 2.5 mph WSW4.0 kmh WSW 5.0 mph8.0 kmh 29.93 in1013.5 mb 0.00 in0.0 mm 0.00 in0.0 mm 0.00 in0.0 mm
07:04 AM 48.4°F9.1°C 45.3°F7.4°C 89% 2.1 mph WSW3.4 kmh WSW 4.0 mph6.4 kmh 29.93 in1013.5 mb 0.00 in0.0 mm 0.00 in0.0 mm 0.00 in0.0 mm
06:59 AM 48.5°F9.2°C 45.1°F7.3°C 88% Calm Calm 3.0 mph4.8 kmh 29.93 in1013.5 mb 0.00 in0.0 mm 0.00 in0.0 mm 0.00 in0.0 mm
06:54 AM 48.6°F9.2°C 45.2°F7.3°C 88% 1.0 mph S1.6 kmh S 3.0 mph4.8 kmh 29.92 in1013.2 mb 0.00 in0.0 mm 0.00 in0.0 mm 0.00 in0.0 mm
06:49 AM 48.7°F9.3°C 45.0°F7.2°C 87% 1.0 mph S1.6 kmh S 5.0 mph8.0 kmh 29.92 in1013.2 mb 0.00 in0.0 mm 0.00 in0.0 mm 0.00 in0.0 mm
06:44 AM 48.7°F9.3°C 45.0°F7.2°C 87% 1.4 mph SE2.3 kmh SE 5.0 mph8.0 kmh 29.92 in1013.2 mb 0.00 in0.0 mm 0.00 in0.0 mm 0.00 in0.0 mm
06:39 AM 48.6°F9.2°C 44.9°F7.2°C 87% 1.0 mph SSE1.6 kmh SSE 6.0 mph9.7 kmh 29.92 in1013.2 mb 0.00 in0.0 mm 0.00 in0.0 mm 0.00 in0.0 mm
06:34 AM 48.6°F9.2°C 44.9°F7.2°C 87% 1.8 mph NNW2.9 kmh NNW 6.0 mph9.7 kmh 29.92 in1013.2 mb 0.00 in0.0 mm 0.00 in0.0 mm 0.00 in0.0 mm
06:29 AM 48.6°F9.2°C 44.9°F7.2°C 87% 2.0 mph S3.2 kmh S 4.0 mph6.4 kmh 29.92 in1013.2 mb 0.00 in0.0 mm 0.00 in0.0 mm 0.00 in0.0 mm
06:23 AM 48.7°F9.3°C 45.0°F7.2°C 87% 1.0 mph SE1.6 kmh SE 7.0 mph11.3 kmh 29.92 in1013.2 mb 0.00 in0.0 mm 0.00 in0.0 mm 0.00 in0.0 mm
06:18 AM 48.7°F9.3°C 45.0°F7.2°C 87% 1.3 mph SW2.1 kmh SW 7.0 mph11.3 kmh 29.92 in1013.2 mb 0.00 in0.0 mm 0.00 in0.0 mm 0.00 in0.0 mm
06:13 AM 48.8°F9.3°C 44.8°F7.1°C 86% 1.5 mph S2.4 kmh S 7.0 mph11.3 kmh 29.91 in1012.9 mb 0.00 in0.0 mm 0.00 in0.0 mm 0.00 in0.0 mm
06:08 AM 48.8°F9.3°C 44.8°F7.1°C 86% 1.0 mph SSE1.6 kmh SSE 7.0 mph11.3 kmh 29.91 in1012.9 mb 0.00 in0.0 mm 0.00 in0.0 mm 0.00 in0.0 mm
06:03 AM 48.9°F9.4°C 44.6°F7.0°C 85% 1.5 mph S2.4 kmh S 7.0 mph11.3 kmh 29.91 in1012.9 mb 0.00 in0.0 mm 0.00 in0.0 mm 0.00 in0.0 mm
05:58 AM 48.9°F9.4°C 44.6°F7.0°C 85% 1.6 mph WSW2.6 kmh WSW 7.0 mph11.3 kmh 29.91 in1012.9 mb 0.00 in0.0 mm 0.00 in0.0 mm 0.00 in0.0 mm
05:52 AM 48.9°F9.4°C 44.6°F7.0°C 85% 1.9 mph SSW3.1 kmh SSW 7.0 mph11.3 kmh 29.91 in1012.9 mb 0.00 in0.0 mm 0.00 in0.0 mm 0.00 in0.0 mm
05:47 AM 48.9°F9.4°C 44.6°F7.0°C 85% 2.1 mph WSW3.4 kmh WSW 5.0 mph8.0 kmh 29.90 in1012.5 mb 0.00 in0.0 mm 0.00 in0.0 mm 0.00 in0.0 mm
05:42 AM 48.9°F9.4°C 44.6°F7.0°C 85% 1.8 mph SSW2.9 kmh SSW 4.0 mph6.4 kmh 29.90 in1012.5 mb 0.00 in0.0 mm 0.00 in0.0 mm 0.00 in0.0 mm
05:37 AM 48.9°F9.4°C 44.6°F7.0°C 85% 1.0 mph W1.6 kmh W 4.0 mph6.4 kmh 29.90 in1012.5 mb 0.00 in0.0 mm 0.00 in0.0 mm 0.00 in0.0 mm
05:32 AM 48.9°F9.4°C 44.6°F7.0°C 85% 1.3 mph S2.1 kmh S 4.0 mph6.4 kmh 29.90 in1012.5 mb 0.00 in0.0 mm 0.00 in0.0 mm 0.00 in0.0 mm
05:27 AM 49.0°F9.4°C 44.7°F7.1°C 85% 1.2 mph SE1.9 kmh SE 4.0 mph6.4 kmh 29.90 in1012.5 mb 0.00 in0.0 mm 0.00 in0.0 mm 0.00 in0.0 mm
05:22 AM 49.0°F9.4°C 44.7°F7.1°C 85% 1.0 mph WSW1.6 kmh WSW 3.0 mph4.8 kmh 29.90 in1012.5 mb 0.00 in0.0 mm 0.00 in0.0 mm 0.00 in0.0 mm
05:17 AM 49.0°F9.4°C 44.7°F7.1°C 85% 1.0 mph SW1.6 kmh SW 3.0 mph4.8 kmh 29.89 in1012.2 mb 0.00 in0.0 mm 0.00 in0.0 mm 0.00 in0.0 mm
05:12 AM 49.0°F9.4°C 44.7°F7.1°C 85% 1.8 mph NE2.9 kmh NE 5.0 mph8.0 kmh 29.89 in1012.2 mb 0.00 in0.0 mm 0.00 in0.0 mm 0.00 in0.0 mm
05:07 AM 49.0°F9.4°C 44.7°F7.1°C 85% 1.0 mph S1.6 kmh S 6.0 mph9.7 kmh 29.89 in1012.2 mb 0.00 in0.0 mm 0.00 in0.0 mm 0.00 in0.0 mm
05:02 AM 49.1°F9.5°C 44.8°F7.1°C 85% 1.6 mph NNE2.6 kmh NNE 7.0 mph11.3 kmh 29.89 in1012.2 mb 0.00 in0.0 mm 0.00 in0.0 mm 0.00 in0.0 mm
04:57 AM 49.1°F9.5°C 44.8°F7.1°C 85% 1.0 mph W1.6 kmh W 7.0 mph11.3 kmh 29.89 in1012.2 mb 0.00 in0.0 mm 0.00 in0.0 mm 0.00 in0.0 mm
04:52 AM 49.1°F9.5°C 44.8°F7.1°C 85% 1.6 mph N2.6 kmh N 7.0 mph11.3 kmh 29.89 in1012.2 mb 0.00 in0.0 mm 0.00 in0.0 mm 0.00 in0.0 mm
04:47 AM 49.1°F9.5°C 44.5°F6.9°C 84% 2.2 mph WSW3.5 kmh WSW 6.0 mph9.7 kmh 29.88 in1011.9 mb 0.00 in0.0 mm 0.00 in0.0 mm 0.00 in0.0 mm
04:42 AM 49.0°F9.4°C 44.4°F6.9°C 84% 1.0 mph E1.6 kmh E 4.0 mph6.4 kmh 29.88 in1011.9 mb 0.00 in0.0 mm 0.00 in0.0 mm 0.00 in0.0 mm
04:37 AM 49.1°F9.5°C 44.5°F6.9°C 84% 1.0 mph SW1.6 kmh SW 5.0 mph8.0 kmh 29.88 in1011.9 mb 0.00 in0.0 mm 0.00 in0.0 mm 0.00 in0.0 mm
04:32 AM 49.1°F9.5°C 44.2°F6.8°C 83% 1.0 mph ESE1.6 kmh ESE 5.0 mph8.0 kmh 29.88 in1011.9 mb 0.00 in0.0 mm 0.00 in0.0 mm 0.00 in0.0 mm
04:27 AM 49.1°F9.5°C 44.2°F6.8°C 83% 1.0 mph SW1.6 kmh SW 5.0 mph8.0 kmh 29.88 in1011.9 mb 0.00 in0.0 mm 0.00 in0.0 mm 0.00 in0.0 mm
04:22 AM 49.1°F9.5°C 44.2°F6.8°C 83% 1.5 mph SW2.4 kmh SW 5.0 mph8.0 kmh 29.88 in1011.9 mb 0.00 in0.0 mm 0.00 in0.0 mm 0.00 in0.0 mm
04:17 AM 49.1°F9.5°C 44.2°F6.8°C 83% 1.4 mph N2.3 kmh N 10.0 mph16.1 kmh 29.88 in1011.9 mb 0.00 in0.0 mm 0.00 in0.0 mm 0.00 in0.0 mm
04:12 AM 49.2°F9.6°C 44.3°F6.8°C 83% 1.0 mph E1.6 kmh E 10.0 mph16.1 kmh 29.88 in1011.9 mb 0.00 in0.0 mm 0.00 in0.0 mm 0.00 in0.0 mm
04:07 AM 49.2°F9.6°C 44.3°F6.8°C 83% 1.3 mph WSW2.1 kmh WSW 10.0 mph16.1 kmh 29.88 in1011.9 mb 0.00 in0.0 mm 0.00 in0.0 mm 0.00 in0.0 mm
04:02 AM 49.2°F9.6°C 44.6°F7.0°C 84% 1.6 mph WSW2.6 kmh WSW 6.0 mph9.7 kmh 29.88 in1011.9 mb 0.00 in0.0 mm 0.00 in0.0 mm 0.00 in0.0 mm
03:56 AM 49.2°F9.6°C 44.3°F6.8°C 83% 1.5 mph WSW2.4 kmh WSW 6.0 mph9.7 kmh 29.87 in1011.5 mb 0.00 in0.0 mm 0.00 in0.0 mm 0.00 in0.0 mm
03:51 AM 49.1°F9.5°C 44.5°F6.9°C 84% 1.2 mph N1.9 kmh N 4.0 mph6.4 kmh 29.87 in1011.5 mb 0.00 in0.0 mm 0.00 in0.0 mm 0.00 in0.0 mm
03:46 AM 49.2°F9.6°C 44.6°F7.0°C 84% 1.0 mph NW1.6 kmh NW 5.0 mph8.0 kmh 29.87 in1011.5 mb 0.00 in0.0 mm 0.00 in0.0 mm 0.00 in0.0 mm
03:41 AM 49.2°F9.6°C 44.6°F7.0°C 84% 1.0 mph SSE1.6 kmh SSE 8.0 mph12.9 kmh 29.87 in1011.5 mb 0.00 in0.0 mm 0.00 in0.0 mm 0.00 in0.0 mm
03:36 AM 49.2°F9.6°C 44.6°F7.0°C 84% 1.3 mph S2.1 kmh S 8.0 mph12.9 kmh 29.87 in1011.5 mb 0.00 in0.0 mm 0.00 in0.0 mm 0.00 in0.0 mm
03:31 AM 49.2°F9.6°C 44.6°F7.0°C 84% 1.5 mph NNW2.4 kmh NNW 8.0 mph12.9 kmh 29.87 in1011.5 mb 0.00 in0.0 mm 0.00 in0.0 mm 0.00 in0.0 mm
03:26 AM 49.3°F9.6°C 44.7°F7.1°C 84% 2.6 mph WSW4.2 kmh WSW 8.0 mph12.9 kmh 29.87 in1011.5 mb 0.00 in0.0 mm 0.00 in0.0 mm 0.00 in0.0 mm
03:21 AM 49.3°F9.6°C 44.7°F7.1°C 84% 1.0 mph S1.6 kmh S 6.0 mph9.7 kmh 29.87 in1011.5 mb 0.00 in0.0 mm 0.00 in0.0 mm 0.00 in0.0 mm
03:16 AM 49.3°F9.6°C 44.7°F7.1°C 84% 1.1 mph S1.8 kmh S 6.0 mph9.7 kmh 29.87 in1011.5 mb 0.00 in0.0 mm 0.00 in0.0 mm 0.00 in0.0 mm
03:11 AM 49.3°F9.6°C 44.7°F7.1°C 84% 1.0 mph NE1.6 kmh NE 6.0 mph9.7 kmh 29.86 in1011.2 mb 0.00 in0.0 mm 0.00 in0.0 mm 0.00 in0.0 mm
03:06 AM 49.3°F9.6°C 44.7°F7.1°C 84% 1.1 mph SSE1.8 kmh SSE 6.0 mph9.7 kmh 29.86 in1011.2 mb 0.00 in0.0 mm 0.00 in0.0 mm 0.00 in0.0 mm
03:01 AM 49.4°F9.7°C 44.8°F7.1°C 84% 2.0 mph SSW3.2 kmh SSW 6.0 mph9.7 kmh 29.86 in1011.2 mb 0.00 in0.0 mm 0.00 in0.0 mm 0.00 in0.0 mm
02:56 AM 49.4°F9.7°C 44.8°F7.1°C 84% 2.1 mph SE3.4 kmh SE 5.0 mph8.0 kmh 29.86 in1011.2 mb 0.00 in0.0 mm 0.00 in0.0 mm 0.00 in0.0 mm
02:51 AM 49.4°F9.7°C 44.8°F7.1°C 84% 1.8 mph WSW2.9 kmh WSW 5.0 mph8.0 kmh 29.86 in1011.2 mb 0.00 in0.0 mm 0.00 in0.0 mm 0.00 in0.0 mm
02:46 AM 49.4°F9.7°C 44.8°F7.1°C 84% 2.1 mph ESE3.4 kmh ESE 5.0 mph8.0 kmh 29.86 in1011.2 mb 0.00 in0.0 mm 0.00 in0.0 mm 0.00 in0.0 mm
02:41 AM 49.4°F9.7°C 45.1°F7.3°C 85% 1.0 mph E1.6 kmh E 6.0 mph9.7 kmh 29.86 in1011.2 mb 0.00 in0.0 mm 0.00 in0.0 mm 0.00 in0.0 mm
02:35 AM 49.3°F9.6°C 45.0°F7.2°C 85% 2.0 mph SSW3.2 kmh SSW 6.0 mph9.7 kmh 29.85 in1010.8 mb 0.00 in0.0 mm 0.00 in0.0 mm 0.00 in0.0 mm
02:30 AM 49.3°F9.6°C 45.0°F7.2°C 85% 1.8 mph SE2.9 kmh SE 7.0 mph11.3 kmh 29.85 in1010.8 mb 0.00 in0.0 mm 0.00 in0.0 mm 0.00 in0.0 mm
02:25 AM 49.3°F9.6°C 45.0°F7.2°C 85% 2.2 mph WSW3.5 kmh WSW 7.0 mph11.3 kmh 29.85 in1010.8 mb 0.00 in0.0 mm 0.00 in0.0 mm 0.00 in0.0 mm
02:19 AM 49.2°F9.6°C 45.2°F7.3°C 86% 2.0 mph W3.2 kmh W 8.0 mph12.9 kmh 29.85 in1010.8 mb 0.00 in0.0 mm 0.00 in0.0 mm 0.00 in0.0 mm
02:14 AM 49.1°F9.5°C 45.1°F7.3°C 86% 2.5 mph W4.0 kmh W 8.0 mph12.9 kmh 29.85 in1010.8 mb 0.00 in0.0 mm 0.00 in0.0 mm 0.00 in0.0 mm
02:09 AM 48.9°F9.4°C 45.2°F7.3°C 87% 1.3 mph SE2.1 kmh SE 7.0 mph11.3 kmh 29.85 in1010.8 mb 0.00 in0.0 mm 0.00 in0.0 mm 0.00 in0.0 mm
02:04 AM 48.7°F9.3°C 45.3°F7.4°C 88% 1.6 mph SW2.6 kmh SW 5.0 mph8.0 kmh 29.85 in1010.8 mb 0.00 in0.0 mm 0.00 in0.0 mm 0.00 in0.0 mm
01:59 AM 48.5°F9.2°C 45.1°F7.3°C 88% 1.5 mph SW2.4 kmh SW 4.0 mph6.4 kmh 29.85 in1010.8 mb 0.00 in0.0 mm 0.00 in0.0 mm 0.00 in0.0 mm
01:54 AM 48.3°F9.1°C 44.9°F7.2°C 88% 1.0 mph S1.6 kmh S 4.0 mph6.4 kmh 29.85 in1010.8 mb 0.00 in0.0 mm 0.00 in0.0 mm 0.00 in0.0 mm
01:49 AM 48.1°F8.9°C 44.7°F7.1°C 88% 1.2 mph S1.9 kmh S 4.0 mph6.4 kmh 29.85 in1010.8 mb 0.00 in0.0 mm 0.00 in0.0 mm 0.00 in0.0 mm
01:44 AM 48.0°F8.9°C 44.6°F7.0°C 88% 1.9 mph E3.1 kmh E 4.0 mph6.4 kmh 29.84 in1010.5 mb 0.00 in0.0 mm 0.00 in0.0 mm 0.00 in0.0 mm
01:39 AM 48.1°F8.9°C 44.4°F6.9°C 87% 1.1 mph S1.8 kmh S 5.0 mph8.0 kmh 29.84 in1010.5 mb 0.00 in0.0 mm 0.00 in0.0 mm 0.00 in0.0 mm
01:34 AM 48.2°F9.0°C 44.5°F6.9°C 87% 1.0 mph WNW1.6 kmh WNW 5.0 mph8.0 kmh 29.84 in1010.5 mb 0.00 in0.0 mm 0.00 in0.0 mm 0.00 in0.0 mm
01:29 AM 48.3°F9.1°C 44.6°F7.0°C 87% 1.3 mph N2.1 kmh N 5.0 mph8.0 kmh 29.84 in1010.5 mb 0.00 in0.0 mm 0.00 in0.0 mm 0.00 in0.0 mm
01:23 AM 48.4°F9.1°C 44.7°F7.1°C 87% Calm Calm 5.0 mph8.0 kmh 29.84 in1010.5 mb 0.00 in0.0 mm 0.00 in0.0 mm 0.00 in0.0 mm
01:18 AM 48.6°F9.2°C 44.6°F7.0°C 86% 1.2 mph NW1.9 kmh NW 5.0 mph8.0 kmh 29.84 in1010.5 mb 0.00 in0.0 mm 0.00 in0.0 mm 0.00 in0.0 mm
01:13 AM 48.6°F9.2°C 44.6°F7.0°C 86% 1.7 mph W2.7 kmh W 5.0 mph8.0 kmh 29.84 in1010.5 mb 0.00 in0.0 mm 0.00 in0.0 mm 0.00 in0.0 mm
01:08 AM 48.7°F9.3°C 44.7°F7.1°C 86% 2.3 mph NE3.7 kmh NE 4.0 mph6.4 kmh 29.84 in1010.5 mb 0.00 in0.0 mm 0.00 in0.0 mm 0.00 in0.0 mm
01:03 AM 48.9°F9.4°C 44.9°F7.2°C 86% 1.3 mph WSW2.1 kmh WSW 4.0 mph6.4 kmh 29.84 in1010.5 mb 0.00 in0.0 mm 0.00 in0.0 mm 0.00 in0.0 mm
12:58 AM 49.1°F9.5°C 44.8°F7.1°C 85% 1.0 mph S1.6 kmh S 4.0 mph6.4 kmh 29.84 in1010.5 mb 0.00 in0.0 mm 0.00 in0.0 mm 0.00 in0.0 mm
12:53 AM 49.3°F9.6°C 45.0°F7.2°C 85% 1.4 mph SW2.3 kmh SW 5.0 mph8.0 kmh 29.84 in1010.5 mb 0.00 in0.0 mm 0.00 in0.0 mm 0.00 in0.0 mm
12:47 AM 49.5°F9.7°C 45.2°F7.3°C 85% 1.4 mph SE2.3 kmh SE 5.0 mph8.0 kmh 29.84 in1010.5 mb 0.00 in0.0 mm 0.00 in0.0 mm 0.00 in0.0 mm
12:42 AM 49.5°F9.7°C 45.2°F7.3°C 85% 1.0 mph SE1.6 kmh SE 5.0 mph8.0 kmh 29.84 in1010.5 mb 0.00 in0.0 mm 0.00 in0.0 mm 0.00 in0.0 mm
12:37 AM 49.5°F9.7°C 45.2°F7.3°C 85% 2.1 mph SSE3.4 kmh SSE 5.0 mph8.0 kmh 29.84 in1010.5 mb 0.00 in0.0 mm 0.00 in0.0 mm 0.00 in0.0 mm
12:32 AM 49.5°F9.7°C 45.2°F7.3°C 85% 1.5 mph S2.4 kmh S 7.0 mph11.3 kmh 29.84 in1010.5 mb 0.00 in0.0 mm 0.00 in0.0 mm 0.00 in0.0 mm
12:27 AM 49.5°F9.7°C 45.2°F7.3°C 85% 1.4 mph SW2.3 kmh SW 7.0 mph11.3 kmh 29.84 in1010.5 mb 0.00 in0.0 mm 0.00 in0.0 mm 0.00 in0.0 mm
12:22 AM 49.4°F9.7°C 45.1°F7.3°C 85% 1.3 mph S2.1 kmh S 7.0 mph11.3 kmh 29.84 in1010.5 mb 0.00 in0.0 mm 0.00 in0.0 mm 0.00 in0.0 mm
12:17 AM 49.3°F9.6°C 45.0°F7.2°C 85% 1.0 mph SE1.6 kmh SE 7.0 mph11.3 kmh 29.84 in1010.5 mb 0.00 in0.0 mm 0.00 in0.0 mm 0.00 in0.0 mm
12:12 AM 49.1°F9.5°C 44.8°F7.1°C 85% 1.6 mph SSW2.6 kmh SSW 5.0 mph8.0 kmh 29.84 in1010.5 mb 0.00 in0.0 mm 0.00 in0.0 mm 0.00 in0.0 mm
12:07 AM 49.0°F9.4°C 45.0°F7.2°C 86% 1.3 mph S2.1 kmh S 5.0 mph8.0 kmh 29.83 in1010.2 mb 0.00 in0.0 mm 0.00 in0.0 mm 0.00 in0.0 mm
12:02 AM 48.9°F9.4°C 44.9°F7.2°C 86% 1.6 mph SE2.6 kmh SE 4.0 mph6.4 kmh 29.84 in1010.5 mb 0.00 in0.0 mm 0.00 in0.0 mm 0.00 in0.0 mm